Time;durP1;ratioP1;P1;durP2;ratioP2;P2;SDS_P1;SDS_P2;PMS_P1;PMS_P2;Temp;Humidity;BMP_temperature;BMP_pressure;BME280_temperature;BME280_humidity;BME280_pressure;Samples;Min_cycle;Max_cycle;Signal;HPM_P1;HPM_P2
2023/05/22 00:01:03;;;;;;;0.20;0.20;;;;;;;16.53;57.25;101324.22;5088431;28;20024;-55
2023/05/22 00:03:29;;;;;;;0.20;0.20;;;;;;;16.50;57.42;101321.66;5088170;28;20080;-57
2023/05/22 00:05:59;;;;;;;0.45;0.45;;;;;;;16.55;57.63;101334.69;5088047;28;20036;-58
2023/05/22 00:08:27;;;;;;;0.40;0.40;;;;;;;16.48;57.70;101321.66;5087919;28;20104;-57
2023/05/22 00:10:53;;;;;;;0.30;0.30;;;;;;;16.45;58.08;101326.97;5087959;28;20024;-59
2023/05/22 00:13:19;;;;;;;0.40;0.40;;;;;;;16.28;58.25;101326.44;5087586;28;20024;-57
2023/05/22 00:15:44;;;;;;;1.60;1.50;;;;;;;16.23;58.19;101318.63;5087900;28;20084;-58
2023/05/22 00:18:12;;;;;;;0.20;0.20;;;;;;;16.23;58.41;101324.75;5087570;28;20049;-58
2023/05/22 00:20:39;;;;;;;0.20;0.20;;;;;;;16.24;58.67;101333.47;5087994;28;20020;-58
2023/05/22 00:23:08;;;;;;;0.20;0.20;;;;;;;16.30;58.65;101320.25;5087780;28;20028;-56
2023/05/22 00:25:35;;;;;;;0.65;0.63;;;;;;;16.25;58.82;101334.31;5087725;28;20028;-58
2023/05/22 00:28:00;;;;;;;0.50;0.50;;;;;;;16.20;59.01;101326.53;5087441;28;20025;-57
2023/05/22 00:30:26;;;;;;;0.30;0.30;;;;;;;16.18;59.13;101330.97;5087492;28;20023;-58
2023/05/22 00:32:51;;;;;;;0.30;0.30;;;;;;;16.16;59.36;101324.88;5087562;28;20101;-55
2023/05/22 00:35:16;;;;;;;0.25;0.25;;;;;;;16.13;59.18;101317.06;5087473;28;20017;-58
2023/05/22 00:37:43;;;;;;;0.30;0.30;;;;;;;16.12;59.03;101324.06;5087435;28;20051;-59
2023/05/22 00:40:09;;;;;;;0.20;0.20;;;;;;;16.18;59.14;101325.72;5087312;28;20085;-58
2023/05/22 00:42:35;;;;;;;0.30;0.30;;;;;;;16.17;59.22;101321.34;5087011;28;20024;-57
2023/05/22 00:45:00;;;;;;;0.20;0.20;;;;;;;16.13;59.32;101314.44;5087367;28;20016;-57
2023/05/22 00:47:26;;;;;;;0.30;0.30;;;;;;;16.08;59.50;101318.03;5087238;28;20021;-58
2023/05/22 00:49:52;;;;;;;0.20;0.20;;;;;;;16.05;59.91;101312.84;5087200;28;20026;-58
2023/05/22 00:52:18;;;;;;;0.20;0.20;;;;;;;16.04;59.54;101311.09;5087063;28;20013;-59
2023/05/22 00:54:45;;;;;;;0.30;0.30;;;;;;;15.99;59.32;101315.53;5087121;28;20025;-58
2023/05/22 00:57:10;;;;;;;0.20;0.20;;;;;;;15.98;59.12;101311.19;5087207;28;20048;-56
2023/05/22 00:59:36;;;;;;;0.20;0.20;;;;;;;16.05;59.69;101315.47;5086844;28;20016;-57
2023/05/22 01:02:02;;;;;;;0.30;0.30;;;;;;;16.09;59.58;101318.88;5086700;28;20046;-57
2023/05/22 01:04:31;;;;;;;0.25;0.25;;;;;;;16.02;59.62;101312.00;5085562;28;20047;-59
2023/05/22 01:06:57;;;;;;;0.20;0.20;;;;;;;16.07;59.44;101318.06;5085130;28;20032;-57
2023/05/22 01:09:23;;;;;;;0.30;0.30;;;;;;;16.07;59.33;101311.03;5086770;28;20191;-57
2023/05/22 01:12:07;;;;;;;0.20;0.20;;;;;;;16.17;59.43;101308.25;5086893;28;20027;-57
2023/05/22 01:14:57;;;;;;;0.20;0.20;;;;;;;16.20;59.46;101311.69;5086562;28;20024;-57
2023/05/22 01:17:36;;;;;;;0.82;0.65;;;;;;;16.08;59.53;101312.78;5086452;28;20200;-57
2023/05/22 01:20:13;;;;;;;0.25;0.25;;;;;;;16.03;59.64;101312.00;5086775;28;20016;-59
2023/05/22 01:22:57;;;;;;;0.38;0.38;;;;;;;16.03;59.74;101317.22;5086671;28;20024;-59
2023/05/22 01:26:01;;;;;;;0.20;0.20;;;;;;;16.13;59.68;101317.06;5086870;28;20033;-58
2023/05/22 01:28:36;;;;;;;0.57;0.57;;;;;;;16.14;59.77;101317.03;5077440;28;20029;-57
2023/05/22 01:31:07;;;;;;;0.30;0.30;;;;;;;16.09;59.80;101311.88;5086617;28;20028;-57
2023/05/22 01:33:44;;;;;;;0.30;0.30;;;;;;;16.10;59.85;101324.06;5086398;28;20052;-57
2023/05/22 01:36:18;;;;;;;0.30;0.30;;;;;;;16.09;59.92;101317.13;5086405;28;20107;-56
2023/05/22 01:38:44;;;;;;;0.30;0.30;;;;;;;16.07;59.87;101315.44;5086303;28;20065;-60
2023/05/22 01:41:11;;;;;;;0.22;0.22;;;;;;;16.12;59.76;101315.34;5086232;28;20020;-56
2023/05/22 01:43:36;;;;;;;0.20;0.20;;;;;;;16.06;59.86;101319.78;5085938;28;20024;-57
2023/05/22 01:46:02;;;;;;;0.30;0.30;;;;;;;16.13;59.74;101303.97;5086238;28;20024;-58
2023/05/22 01:48:28;;;;;;;0.63;0.63;;;;;;;16.05;60.11;101309.34;5084726;28;20021;-58
2023/05/22 01:50:55;;;;;;;0.30;0.30;;;;;;;16.12;60.11;101316.19;5086264;28;20458;-58
2023/05/22 01:53:28;;;;;;;0.60;0.60;;;;;;;16.13;60.21;101315.31;5085906;28;20029;-59
2023/05/22 01:56:05;;;;;;;0.20;0.20;;;;;;;16.07;60.52;101318.91;5085781;28;20413;-55
2023/05/22 01:58:41;;;;;;;0.30;0.30;;;;;;;16.03;60.70;101308.50;5085600;28;20339;-58
2023/05/22 02:01:09;;;;;;;0.22;0.22;;;;;;;16.13;60.32;101303.97;5086088;28;20024;-57
2023/05/22 02:03:36;;;;;;;0.30;0.30;;;;;;;16.06;60.37;101303.19;5084535;28;20086;-58
2023/05/22 02:06:06;;;;;;;0.57;0.57;;;;;;;15.95;61.00;101305.97;5085838;28;20029;-57
2023/05/22 02:08:34;;;;;;;0.68;0.65;;;;;;;16.01;60.79;101308.53;5085712;28;20044;-57
2023/05/22 02:11:01;;;;;;;0.20;0.20;;;;;;;15.96;61.03;101305.06;5085773;28;20055;-57
2023/05/22 02:13:27;;;;;;;0.30;0.30;;;;;;;15.91;61.17;101304.31;5085414;28;20021;-58
2023/05/22 02:15:54;;;;;;;0.30;0.30;;;;;;;16.07;60.70;101310.19;5085726;28;20076;-58
2023/05/22 02:18:28;;;;;;;0.20;0.20;;;;;;;15.93;60.99;101303.38;5085205;28;20045;-58
2023/05/22 02:20:55;;;;;;;0.60;0.60;;;;;;;16.01;60.77;101298.03;5085668;28;20080;-57
2023/05/22 02:23:20;;;;;;;0.45;0.45;;;;;;;16.00;60.67;101304.19;5085185;28;20096;-59
2023/05/22 02:25:45;;;;;;;0.28;0.28;;;;;;;15.95;60.83;101300.75;5085440;28;20063;-58
2023/05/22 02:28:11;;;;;;;0.30;0.30;;;;;;;15.98;60.47;101298.09;5084650;28;20024;-59
2023/05/22 02:30:36;;;;;;;0.30;0.30;;;;;;;16.00;60.42;101292.84;5084302;28;20040;-56
2023/05/22 02:33:04;;;;;;;0.52;0.52;;;;;;;15.93;60.57;101294.66;5084703;28;20074;-57
2023/05/22 02:35:29;;;;;;;0.20;0.20;;;;;;;16.01;60.23;101300.66;5085162;28;20024;-56
2023/05/22 02:37:55;;;;;;;0.30;0.30;;;;;;;16.04;60.12;101305.00;5084909;28;20024;-60
2023/05/22 02:40:20;;;;;;;0.32;0.32;;;;;;;16.03;59.81;101290.16;5085193;28;20020;-57
2023/05/22 02:42:46;;;;;;;0.30;0.30;;;;;;;16.14;59.44;101305.69;5084592;28;20024;-58
2023/05/22 02:45:11;;;;;;;1.38;1.38;;;;;;;16.03;59.55;101296.28;5085197;28;20043;-59
2023/05/22 02:47:37;;;;;;;0.30;0.30;;;;;;;16.10;59.26;101303.13;5084800;28;20024;-58
2023/05/22 02:50:02;;;;;;;0.57;0.57;;;;;;;16.09;59.35;101293.56;5084732;28;20040;-57
2023/05/22 02:52:28;;;;;;;7.13;1.13;;;;;;;16.04;59.46;101292.75;5084668;28;20122;-57
2023/05/22 02:54:53;;;;;;;0.30;0.30;;;;;;;16.03;59.41;101293.66;5083164;28;20017;-57
2023/05/22 02:57:18;;;;;;;0.20;0.20;;;;;;;16.06;59.32;101295.34;5084360;28;20042;-57
2023/05/22 02:59:44;;;;;;;0.30;0.30;;;;;;;16.05;59.44;101306.72;5084413;28;20055;-60
2023/05/22 03:02:11;;;;;;;0.20;0.20;;;;;;;15.99;59.59;101302.44;5084675;28;20024;-59
2023/05/22 03:04:37;;;;;;;0.30;0.30;;;;;;;15.98;59.16;101287.63;5084458;28;20055;-57
2023/05/22 03:07:03;;;;;;;0.20;0.20;;;;;;;16.11;59.00;101296.13;5084756;28;20017;-57
2023/05/22 03:09:28;;;;;;;0.30;0.30;;;;;;;16.08;59.03;101291.84;5084180;28;20024;-57
2023/05/22 03:11:54;;;;;;;0.25;0.25;;;;;;;16.05;59.18;101289.25;5084516;28;20389;-57
2023/05/22 03:14:19;;;;;;;0.30;0.30;;;;;;;15.97;59.24;101294.59;5084183;28;20028;-59
2023/05/22 03:16:45;;;;;;;0.30;0.30;;;;;;;16.03;59.03;101287.53;5084131;28;20048;-58
2023/05/22 03:19:12;;;;;;;0.20;0.20;;;;;;;16.00;58.86;101278.00;5082886;28;20017;-58
2023/05/22 03:21:38;;;;;;;0.30;0.30;;;;;;;16.04;58.75;101287.53;5084291;28;20059;-56
2023/05/22 03:24:05;;;;;;;0.30;0.30;;;;;;;16.08;58.38;101277.88;5084340;28;20035;-57
2023/05/22 03:26:30;;;;;;;0.40;0.40;;;;;;;16.04;58.54;101278.81;5084078;28;20024;-57
2023/05/22 03:28:56;;;;;;;0.25;0.25;;;;;;;16.04;58.61;101284.06;5082838;28;20404;-58
2023/05/22 03:31:27;;;;;;;0.52;0.52;;;;;;;15.94;58.85;101288.56;5083833;28;20048;-56
2023/05/22 03:33:52;;;;;;;0.25;0.25;;;;;;;15.96;58.62;101277.16;5083155;28;20460;-57
2023/05/22 03:36:20;;;;;;;0.50;0.50;;;;;;;16.00;58.53;101282.38;5084197;28;20024;-57
2023/05/22 03:38:46;;;;;;;0.20;0.20;;;;;;;15.98;58.42;101277.16;5083904;28;20473;-58
2023/05/22 03:41:11;;;;;;;0.30;0.30;;;;;;;15.99;58.67;101276.25;5084238;28;20044;-57
2023/05/22 03:43:37;;;;;;;0.20;0.20;;;;;;;15.95;58.88;101279.78;5083715;28;20496;-54
2023/05/22 03:46:02;;;;;;;0.40;0.40;;;;;;;15.91;58.85;101288.59;5084068;28;20035;-57
2023/05/22 03:48:27;;;;;;;0.20;0.20;;;;;;;15.96;58.56;101282.38;5083784;28;20209;-59
2023/05/22 03:50:53;;;;;;;0.20;0.20;;;;;;;15.98;58.73;101277.16;5083848;28;20024;-57
2023/05/22 03:53:18;;;;;;;0.30;0.30;;;;;;;15.96;58.87;101287.63;5083849;28;20016;-58
2023/05/22 03:55:44;;;;;;;0.30;0.30;;;;;;;16.06;58.87;101277.88;5083907;28;20388;-56
2023/05/22 03:58:09;;;;;;;0.20;0.20;;;;;;;16.22;58.57;101277.59;5083816;28;20024;-60
2023/05/22 04:00:34;;;;;;;0.40;0.40;;;;;;;16.30;58.45;101280.97;5083851;28;20031;-58
2023/05/22 04:03:00;;;;;;;0.30;0.30;;;;;;;16.48;58.18;101282.34;5084078;28;20020;-57
2023/05/22 04:05:25;;;;;;;0.20;0.20;;;;;;;16.68;57.33;101275.88;5083925;28;20021;-56
2023/05/22 04:07:51;;;;;;;4.03;0.95;;;;;;;16.71;57.17;101264.44;5083935;28;20408;-58
2023/05/22 04:10:16;;;;;;;0.30;0.30;;;;;;;17.00;56.88;101288.34;5083843;28;20029;-59
2023/05/22 04:12:42;;;;;;;0.25;0.25;;;;;;;17.13;55.98;101284.59;5083848;28;20024;-59
2023/05/22 04:15:08;;;;;;;0.65;0.65;;;;;;;17.25;55.74;101282.59;5083753;28;20017;-55
2023/05/22 04:17:38;;;;;;;0.40;0.40;;;;;;;17.36;55.83;101284.97;5083606;28;20049;-57
2023/05/22 04:20:05;;;;;;;0.45;0.45;;;;;;;17.53;55.87;101282.81;5083687;28;20045;-56
2023/05/22 04:22:30;;;;;;;0.55;0.55;;;;;;;17.87;56.06;101283.75;5084057;28;20111;-58
2023/05/22 04:24:56;;;;;;;0.20;0.20;;;;;;;18.24;55.59;101278.50;5083683;28;20122;-57
2023/05/22 04:27:21;;;;;;;0.20;0.20;;;;;;;18.62;53.14;101270.44;5083644;28;20090;-58
2023/05/22 04:29:49;;;;;;;0.25;0.25;;;;;;;18.68;53.12;101280.78;5083431;28;20025;-58
2023/05/22 04:32:17;;;;;;;0.30;0.30;;;;;;;18.76;52.22;101273.53;5083825;28;20035;-59
2023/05/22 04:34:44;;;;;;;0.30;0.30;;;;;;;18.90;51.65;101277.50;5083645;28;20035;-59
2023/05/22 04:37:10;;;;;;;0.20;0.20;;;;;;;18.90;51.07;101261.72;5083624;28;20024;-59
2023/05/22 04:39:36;;;;;;;0.20;0.20;;;;;;;19.25;49.11;101269.50;5083329;28;20032;-59
2023/05/22 04:42:04;;;;;;;0.20;0.20;;;;;;;18.91;49.58;101268.72;5083582;28;20024;-59
2023/05/22 04:44:33;;;;;;;0.30;0.30;;;;;;;18.55;50.62;101270.63;5083747;28;20025;-60
2023/05/22 04:47:02;;;;;;;0.43;0.43;;;;;;;18.39;50.92;101277.19;5087296;28;20020;-58
2023/05/22 04:49:28;;;;;;;0.20;0.20;;;;;;;18.37;51.76;101279.03;5087274;28;20048;-58
2023/05/22 04:51:56;;;;;;;1.38;1.38;;;;;;;18.37;51.71;101271.13;5087084;28;20038;-58
2023/05/22 04:54:23;;;;;;;0.20;0.20;;;;;;;18.46;52.17;101276.13;5087143;28;20086;-60
2023/05/22 04:56:48;;;;;;;1.17;1.17;;;;;;;18.47;52.38;101266.50;5087319;28;20020;-60
2023/05/22 04:59:15;;;;;;;0.68;0.68;;;;;;;18.74;52.17;101261.34;5086825;28;20423;-60
2023/05/22 05:01:44;;;;;;;0.20;0.20;;;;;;;19.21;51.97;101263.47;5087214;28;20525;-60
2023/05/22 05:04:10;;;;;;;0.20;0.20;;;;;;;19.57;49.92;101265.84;5087186;28;20021;-59
2023/05/22 05:06:36;;;;;;;0.20;0.20;;;;;;;19.67;49.17;101257.63;5086752;28;20034;-59
2023/05/22 05:09:03;;;;;;;0.30;0.30;;;;;;;19.67;49.29;101263.78;5086832;28;20074;-59
2023/05/22 05:11:29;;;;;;;0.55;0.55;;;;;;;20.00;49.14;101267.94;5086601;28;20024;-53
2023/05/22 05:13:54;;;;;;;0.30;0.30;;;;;;;20.16;48.84;101260.38;5086732;28;20025;-57
2023/05/22 05:16:20;;;;;;;0.20;0.20;;;;;;;20.51;48.94;101257.38;5086396;28;20058;-58
2023/05/22 05:18:45;;;;;;;16.15;2.38;;;;;;;20.81;47.62;101256.31;5086441;28;20031;-58
2023/05/22 05:21:11;;;;;;;0.20;0.20;;;;;;;21.05;48.46;101262.44;5086831;28;20036;-56
2023/05/22 05:23:36;;;;;;;0.20;0.20;;;;;;;21.37;45.85;101263.88;5086548;28;20400;-55
2023/05/22 05:26:01;;;;;;;0.40;0.40;;;;;;;21.43;43.23;101258.34;5086493;28;20024;-55
2023/05/22 05:28:27;;;;;;;0.20;0.20;;;;;;;20.90;43.95;101261.22;5086167;28;20021;-57
2023/05/22 05:30:52;;;;;;;0.20;0.20;;;;;;;20.51;44.30;101257.38;5086388;28;20032;-56
2023/05/22 05:33:18;;;;;;;0.30;0.30;;;;;;;20.27;44.81;101248.63;5086291;28;20028;-57
2023/05/22 05:35:44;;;;;;;0.20;0.20;;;;;;;20.13;44.66;101246.44;5086065;28;20047;-58
2023/05/22 05:38:09;;;;;;;0.20;0.20;;;;;;;19.74;46.28;101253.91;5085962;28;20479;-54
2023/05/22 05:40:35;;;;;;;0.50;0.50;;;;;;;19.82;45.67;101243.94;5086214;28;20032;-57
2023/05/22 05:43:00;;;;;;;0.20;0.20;;;;;;;19.43;45.90;101245.22;5085616;28;20445;-58
2023/05/22 05:45:26;;;;;;;0.20;0.20;;;;;;;18.93;47.52;101249.34;5085932;28;20076;-57
2023/05/22 05:47:51;;;;;;;0.30;0.30;;;;;;;18.74;48.54;101225.38;5086237;28;20025;-56
2023/05/22 05:50:17;;;;;;;0.40;0.40;;;;;;;19.40;46.54;101253.22;5086255;28;20028;-53
2023/05/22 05:52:42;;;;;;;0.40;0.40;;;;;;;19.60;46.26;101241.16;5086161;28;20021;-55
2023/05/22 05:55:08;;;;;;;0.30;0.30;;;;;;;19.81;45.80;101241.34;5085968;28;20032;-55
2023/05/22 05:57:34;;;;;;;0.30;0.30;;;;;;;19.94;45.79;101242.66;5085023;28;20025;-58
2023/05/22 06:00:00;;;;;;;0.20;0.20;;;;;;;20.31;44.92;101244.94;5085823;28;20012;-56
2023/05/22 06:02:25;;;;;;;0.60;0.60;;;;;;;20.84;43.37;101242.13;5085698;28;20051;-57
2023/05/22 06:04:52;;;;;;;0.20;0.20;;;;;;;21.14;42.45;101245.38;5085895;28;20089;-56
2023/05/22 06:07:18;;;;;;;0.20;0.20;;;;;;;21.07;41.94;101245.69;5085837;28;20051;-53
2023/05/22 06:09:43;;;;;;;0.40;0.40;;;;;;;20.92;42.66;101246.25;5084805;28;20020;-54
2023/05/22 06:12:12;;;;;;;0.20;0.20;;;;;;;21.32;43.11;101239.41;5084769;28;20031;-56
2023/05/22 06:14:39;;;;;;;0.20;0.20;;;;;;;21.88;40.49;101247.72;5085571;28;20028;-56
2023/05/22 06:17:07;;;;;;;0.40;0.38;;;;;;;22.13;39.11;101244.00;5085490;28;20307;-55
2023/05/22 06:19:33;;;;;;;0.40;0.40;;;;;;;21.84;40.43;101243.50;5039021;23;20215;-62
2023/05/22 06:21:58;;;;;;;0.20;0.20;;;;;;;22.05;41.01;101236.41;5005059;28;20046;-63
2023/05/22 06:24:23;;;;;;;0.20;0.20;;;;;;;22.54;39.80;101236.00;5033403;23;20512;-53
2023/05/22 06:26:49;;;;;;;0.22;0.22;;;;;;;22.93;37.54;101236.03;5069680;23;21000;-64
2023/05/22 06:29:14;;;;;;;0.20;0.20;;;;;;;22.59;38.08;101243.75;5069242;23;20520;-55
2023/05/22 06:31:40;;;;;;;0.20;0.20;;;;;;;22.37;37.97;101234.13;5057959;23;20080;-58
2023/05/22 06:34:05;;;;;;;0.20;0.20;;;;;;;22.31;38.93;101230.88;5059520;28;20044;-55
2023/05/22 06:36:33;;;;;;;1.83;1.73;;;;;;;22.50;38.73;101229.13;5070040;23;20124;-67
2023/05/22 06:38:59;;;;;;;0.20;0.20;;;;;;;22.67;37.89;101238.09;5063838;28;20025;-66
2023/05/22 06:41:25;;;;;;;0.20;0.20;;;;;;;22.70;37.15;101234.47;5064993;28;20044;-66
2023/05/22 06:43:50;;;;;;;0.20;0.20;;;;;;;22.55;37.57;101231.56;5064777;28;20025;-66
2023/05/22 06:46:16;;;;;;;0.75;0.75;;;;;;;22.48;38.08;101227.47;5064837;28;20031;-65
2023/05/22 06:48:41;;;;;;;0.22;0.22;;;;;;;22.69;37.89;101233.59;5071783;23;20035;-56
2023/05/22 06:51:09;;;;;;;0.43;0.43;;;;;;;22.94;37.55;101232.44;5040810;28;20026;-56
2023/05/22 06:53:35;;;;;;;0.55;0.55;;;;;;;23.15;36.77;101219.94;5043663;28;20086;-56
2023/05/22 06:56:00;;;;;;;0.20;0.20;;;;;;;23.30;37.20;101235.16;5057838;23;20045;-64
2023/05/22 06:58:26;;;;;;;0.22;0.22;;;;;;;23.57;36.36;101227.66;5063394;28;20021;-63
2023/05/22 07:00:52;;;;;;;0.63;0.63;;;;;;;23.73;35.12;101235.69;5070462;23;20107;-58
2023/05/22 07:03:18;;;;;;;0.57;0.57;;;;;;;23.49;35.85;101228.06;5020659;28;20036;-55
2023/05/22 07:05:43;;;;;;;0.20;0.20;;;;;;;24.06;35.91;101225.22;5056890;23;20049;-56
2023/05/22 07:08:09;;;;;;;0.10;0.10;;;;;;;24.69;36.41;101223.63;5063460;28;20040;-56
2023/05/22 07:10:34;;;;;;;0.32;0.32;;;;;;;25.66;35.62;101215.56;5068727;23;20523;-65
2023/05/22 07:12:59;;;;;;;0.10;0.10;;;;;;;26.58;34.66;101215.28;5063476;28;20048;-65
2023/05/22 07:15:25;;;;;;;0.10;0.10;;;;;;;27.30;32.10;101196.53;5070348;23;21428;-53
2023/05/22 07:17:50;;;;;;;0.20;0.20;;;;;;;27.53;31.52;101207.44;5061107;28;20063;-56
2023/05/22 07:20:16;;;;;;;0.28;0.28;;;;;;;27.41;31.53;101210.00;5068701;23;20061;-63
2023/05/22 07:22:41;;;;;;;0.15;0.15;;;;;;;27.38;31.07;101212.84;5068108;23;20044;-55
2023/05/22 07:25:07;;;;;;;0.30;0.30;;;;;;;27.63;31.73;101202.34;5068174;23;20053;-64
2023/05/22 07:27:33;;;;;;;0.10;0.10;;;;;;;28.09;29.94;101204.50;5062575;28;20086;-63
2023/05/22 07:29:58;;;;;;;0.10;0.10;;;;;;;28.51;28.45;101198.03;5062807;28;20067;-64
2023/05/22 07:32:24;;;;;;;0.10;0.10;;;;;;;28.16;27.51;101199.59;5063455;28;20420;-63
2023/05/22 07:34:49;;;;;;;0.10;0.10;;;;;;;27.91;28.75;101203.97;5064066;28;20074;-64
2023/05/22 07:37:14;;;;;;;0.10;0.10;;;;;;;27.88;28.59;101195.31;5065783;23;20136;-55
2023/05/22 07:39:40;;;;;;;0.10;0.10;;;;;;;28.17;27.63;101195.94;5093969;22;20083;-55
2023/05/22 07:42:06;;;;;;;0.10;0.10;;;;;;;27.98;28.44;101185.72;5082827;28;20033;-55
2023/05/22 07:44:32;;;;;;;0.10;0.10;;;;;;;28.17;26.47;101203.97;5087517;22;20131;-66
2023/05/22 07:46:58;;;;;;;0.20;0.20;;;;;;;27.44;26.78;101207.13;5083101;28;20086;-66
2023/05/22 07:49:23;;;;;;;0.20;0.20;;;;;;;27.17;28.45;101197.38;5083001;28;20025;-65
2023/05/22 07:51:49;;;;;;;0.10;0.10;;;;;;;27.74;28.98;101201.63;5103968;28;20020;-66
2023/05/22 07:54:14;;;;;;;0.10;0.10;;;;;;;28.45;28.56;101195.81;5103800;28;20028;-65
2023/05/22 07:56:41;;;;;;;0.10;0.10;;;;;;;29.04;27.48;101199.53;5103997;28;20411;-66
2023/05/22 07:59:07;;;;;;;0.10;0.10;;;;;;;29.48;27.03;101207.00;5091982;23;20488;-55
2023/05/22 08:01:33;;;;;;;0.10;0.10;;;;;;;29.67;25.36;101211.81;5102619;28;20020;-57
2023/05/22 08:03:59;;;;;;;0.20;0.20;;;;;;;29.75;24.42;101207.66;5096568;23;20052;-63
2023/05/22 08:06:24;;;;;;;0.28;0.28;;;;;;;29.84;25.05;101211.47;5082216;28;20158;-64
2023/05/22 08:08:51;;;;;;;0.30;0.30;;;;;;;29.83;25.88;101218.63;5087772;23;20060;-53
2023/05/22 08:11:17;;;;;;;0.10;0.10;;;;;;;29.97;26.21;101211.34;5101381;22;20072;-57
2023/05/22 08:13:42;;;;;;;0.10;0.10;;;;;;;30.18;25.29;101209.66;5082076;28;20047;-56
2023/05/22 08:16:08;;;;;;;2.17;0.90;;;;;;;30.43;25.66;101215.72;5092401;23;20048;-56
2023/05/22 08:18:35;;;;;;;0.10;0.10;;;;;;;30.45;25.39;101204.06;5088066;23;20017;-64
2023/05/22 08:21:00;;;;;;;0.10;0.10;;;;;;;30.47;25.09;101194.03;5044412;28;20037;-63
2023/05/22 08:23:26;;;;;;;0.20;0.20;;;;;;;30.20;25.28;101196.16;5044492;28;20017;-64
2023/05/22 08:25:51;;;;;;;0.20;0.20;;;;;;;29.73;24.96;101199.75;5066522;28;20100;-64
2023/05/22 08:28:17;;;;;;;0.47;0.47;;;;;;;29.18;25.83;101208.34;5083315;23;20049;-58
2023/05/22 08:30:42;;;;;;;0.30;0.30;;;;;;;29.00;26.16;101202.56;5106826;28;20016;-58
2023/05/22 08:33:07;;;;;;;0.30;0.30;;;;;;;29.22;26.45;101191.09;5097985;22;20056;-64
2023/05/22 08:35:33;;;;;;;0.10;0.10;;;;;;;29.31;26.16;101201.09;5091776;23;20055;-57
2023/05/22 08:37:58;;;;;;;0.20;0.20;;;;;;;29.16;26.39;101200.47;5086654;28;20091;-58
2023/05/22 08:40:39;;;;;;;0.40;0.40;;;;;;;28.96;26.47;101191.28;5086855;28;20032;-57
2023/05/22 08:43:05;;;;;;;0.20;0.20;;;;;;;28.73;26.42;101191.13;5107717;28;20024;-56
2023/05/22 08:45:32;;;;;;;0.10;0.10;;;;;;;28.20;26.53;101193.06;5107533;28;20035;-56
2023/05/22 08:48:03;;;;;;;0.17;0.17;;;;;;;27.52;26.64;101195.06;5107568;28;20032;-57
2023/05/22 08:53:02;;;;;;;0.10;0.10;;;;;;;27.43;26.75;101186.75;5078573;22;20044;-54
2023/05/22 08:55:29;;;;;;;0.20;0.20;;;;;;;26.91;27.23;101191.06;5107197;28;20479;-54
2023/05/22 08:57:55;;;;;;;0.20;0.20;;;;;;;26.70;27.83;101183.50;5107395;28;20297;-56
2023/05/22 09:00:21;;;;;;;0.10;0.10;;;;;;;26.65;26.87;101175.81;5098717;22;20124;-56
2023/05/22 09:02:48;;;;;;;0.13;0.13;;;;;;;26.19;27.95;101180.44;5106403;28;20074;-54
2023/05/22 09:05:16;;;;;;;0.10;0.10;;;;;;;26.05;28.46;101176.00;5105467;23;21188;-54
2023/05/22 09:07:42;;;;;;;0.20;0.20;;;;;;;25.93;28.82;101190.03;5105336;23;20076;-66
2023/05/22 09:10:08;;;;;;;0.15;0.15;;;;;;;25.84;28.87;101184.34;5105165;28;20089;-65
2023/05/22 09:12:33;;;;;;;0.13;0.13;;;;;;;25.88;29.29;101174.34;5107168;28;20491;-65
2023/05/22 09:15:09;;;;;;;0.10;0.10;;;;;;;26.31;29.39;101184.16;5093641;23;20119;-55
2023/05/22 09:17:39;;;;;;;0.10;0.10;;;;;;;26.77;28.89;101178.66;5099058;22;20085;-54
2023/05/22 09:20:05;;;;;;;0.20;0.20;;;;;;;26.90;27.84;101190.19;5105465;28;20101;-56
2023/05/22 09:22:36;;;;;;;0.10;0.10;;;;;;;26.53;27.83;101188.13;5106918;28;20516;-54
2023/05/22 09:25:02;;;;;;;0.10;0.10;;;;;;;26.63;28.99;101184.88;5091502;23;20053;-68
2023/05/22 09:27:28;;;;;;;0.10;0.10;;;;;;;26.97;27.82;101180.84;5085861;28;20380;-67
2023/05/22 09:29:58;;;;;;;0.20;0.20;;;;;;;27.00;28.00;101179.81;5051341;28;20024;-67
2023/05/22 09:32:27;;;;;;;0.77;0.75;;;;;;;27.04;28.22;101177.81;5066814;28;20021;-68
2023/05/22 09:34:53;;;;;;;0.10;0.10;;;;;;;27.33;28.57;101175.00;5084183;28;20111;-67
2023/05/22 09:37:18;;;;;;;0.50;0.50;;;;;;;27.86;28.39;101166.09;5086488;28;20028;-67
2023/05/22 09:39:45;;;;;;;0.20;0.20;;;;;;;28.70;28.30;101164.63;5046275;23;20054;-57
2023/05/22 09:42:13;;;;;;;0.10;0.10;;;;;;;29.15;27.70;101158.66;5025575;28;20038;-55
2023/05/22 09:44:41;;;;;;;0.10;0.10;;;;;;;29.61;27.75;101164.13;5026325;28;20036;-58
2023/05/22 09:47:08;;;;;;;0.20;0.20;;;;;;;30.38;27.05;101155.47;5026571;28;20108;-57
2023/05/22 09:49:36;;;;;;;0.30;0.30;;;;;;;30.49;25.82;101158.13;5026248;28;20029;-59
2023/05/22 09:52:06;;;;;;;0.10;0.10;;;;;;;30.41;26.05;101147.19;5026331;28;20022;-58
2023/05/22 09:54:33;;;;;;;0.10;0.10;;;;;;;30.08;24.76;101144.44;5026416;28;20504;-58
2023/05/22 09:57:00;;;;;;;1.75;1.10;;;;;;;29.76;24.98;101137.16;5059652;23;20054;-56
2023/05/22 09:59:30;;;;;;;0.10;0.10;;;;;;;29.78;25.19;101143.22;5044764;28;20028;-57
2023/05/22 10:01:56;;;;;;;3.13;1.48;;;;;;;30.16;25.12;101128.59;5046032;28;20025;-56
2023/05/22 10:04:22;;;;;;;0.10;0.10;;;;;;;30.77;23.63;101128.19;5045684;28;20028;-54
2023/05/22 10:06:53;;;;;;;5.82;1.23;;;;;;;31.13;23.93;101131.47;5046086;28;20029;-55
2023/05/22 10:09:29;;;;;;;0.10;0.10;;;;;;;31.87;24.00;101125.22;5045875;28;20518;-53
2023/05/22 10:11:58;;;;;;;0.15;0.15;;;;;;;31.76;23.71;101112.72;5045962;28;20060;-56
2023/05/22 10:14:25;;;;;;;0.10;0.10;;;;;;;31.46;23.27;101115.31;5027361;28;20030;-56
2023/05/22 10:16:52;;;;;;;0.15;0.15;;;;;;;31.34;22.93;101130.59;5055361;23;20057;-66
2023/05/22 10:19:17;;;;;;;0.30;0.30;;;;;;;31.03;23.66;101119.81;5044549;28;20033;-67
2023/05/22 10:21:46;;;;;;;0.10;0.10;;;;;;;30.90;23.45;101115.50;5027400;28;20036;-67
2023/05/22 10:24:12;;;;;;;0.10;0.10;;;;;;;30.21;24.08;101106.81;5066247;23;20123;-55
2023/05/22 10:26:38;;;;;;;0.20;0.20;;;;;;;30.16;24.20;101104.50;5071416;22;20043;-66
2023/05/22 10:29:11;;;;;;;0.10;0.10;;;;;;;30.08;23.94;101096.25;5101164;23;20405;-57
2023/05/22 10:31:48;;;;;;;0.10;0.10;;;;;;;29.68;24.43;101090.44;5076882;22;20049;-54
2023/05/22 10:34:25;;;;;;;0.10;0.10;;;;;;;29.63;24.45;101094.47;5059575;23;20067;-67
2023/05/22 10:37:25;;;;;;;0.10;0.10;;;;;;;29.68;25.31;101079.72;5063818;28;20024;-67
2023/05/22 10:40:01;;;;;;;1.08;0.98;;;;;;;30.27;24.03;101078.72;5069622;23;20152;-56
2023/05/22 10:42:32;;;;;;;0.10;0.10;;;;;;;30.17;24.39;101074.09;5063480;28;20036;-55
2023/05/22 10:45:00;;;;;;;1.75;0.85;;;;;;;29.72;24.27;101068.78;5091610;23;20075;-56
2023/05/22 10:47:26;;;;;;;0.10;0.10;;;;;;;29.43;24.92;101067.41;5083774;28;20154;-56
2023/05/22 10:50:08;;;;;;;0.10;0.10;;;;;;;29.25;25.13;101073.22;5084255;28;20071;-56
2023/05/22 10:52:38;;;;;;;0.28;0.28;;;;;;;29.15;25.49;101066.91;5112053;22;20056;-56
2023/05/22 10:55:08;;;;;;;0.10;0.10;;;;;;;28.51;25.58;101010.25;5109773;22;20020;-66
2023/05/22 10:57:35;;;;;;;0.10;0.10;;;;;;;28.49;26.72;101065.59;5100534;22;20059;-56
2023/05/22 11:00:13;;;;;;;0.10;0.10;;;;;;;27.99;26.84;101053.16;5104467;28;20027;-55
2023/05/22 11:02:43;;;;;;;0.10;0.10;;;;;;;27.45;27.26;101054.19;5107130;28;20034;-57
2023/05/22 11:05:19;;;;;;;0.10;0.10;;;;;;;26.82;28.03;101057.53;5078189;22;20140;-57
2023/05/22 11:07:45;;;;;;;0.40;0.40;;;;;;;26.32;28.18;101035.97;5049186;23;20044;-65
2023/05/22 11:10:10;;;;;;;0.10;0.10;;;;;;;25.91;28.79;101040.34;5091460;23;20104;-54
2023/05/22 11:12:36;;;;;;;0.43;0.43;;;;;;;25.62;29.48;101041.22;5106282;22;20093;-66
2023/05/22 11:15:07;;;;;;;0.25;0.25;;;;;;;25.30;30.13;101044.03;5091301;23;20040;-57
2023/05/22 11:17:38;;;;;;;0.20;0.20;;;;;;;24.87;30.54;101049.13;5084065;28;20024;-57
2023/05/22 11:20:05;;;;;;;0.15;0.15;;;;;;;24.56;31.21;101050.06;5094235;22;20052;-65
2023/05/22 11:22:43;;;;;;;0.10;0.10;;;;;;;24.29;31.55;101040.09;5085518;22;20048;-55
2023/05/22 11:25:10;;;;;;;0.10;0.10;;;;;;;24.11;31.68;101029.53;5084197;28;20056;-56
2023/05/22 11:27:38;;;;;;;0.30;0.30;;;;;;;24.10;31.90;101027.84;5060370;22;20057;-66